sensor_id;sensor_type;location;lat;lon;timestamp;pressure;altitude;pressure_sealevel;temperature;humidity
53659;BME280;41524;35.624;139.698;2023-09-07T00:00:13;100909.00;;;28.72;46.57
53659;BME280;41524;35.624;139.698;2023-09-07T00:05:11;100898.00;;;28.80;46.55
53659;BME280;41524;35.624;139.698;2023-09-07T00:10:12;100882.00;;;28.78;46.53
53659;BME280;41524;35.624;139.698;2023-09-07T00:15:12;100875.00;;;27.60;47.14
53659;BME280;41524;35.624;139.698;2023-09-07T00:20:13;100868.00;;;28.17;46.60
53659;BME280;41524;35.624;139.698;2023-09-07T00:25:12;100874.00;;;27.54;48.03
53659;BME280;41524;35.624;139.698;2023-09-07T00:30:12;100880.00;;;28.48;46.15
53659;BME280;41524;35.624;139.698;2023-09-07T00:35:12;100867.00;;;28.74;45.16
53659;BME280;41524;35.624;139.698;2023-09-07T00:40:12;100864.00;;;28.30;46.57
53659;BME280;41524;35.624;139.698;2023-09-07T00:45:11;100844.00;;;29.37;44.84
53659;BME280;41524;35.624;139.698;2023-09-07T00:50:11;100819.00;;;27.06;47.65
53659;BME280;41524;35.624;139.698;2023-09-07T00:55:13;100830.00;;;25.83;49.68
53659;BME280;41524;35.624;139.698;2023-09-07T01:00:11;100850.00;;;25.32;51.25
53659;BME280;41524;35.624;139.698;2023-09-07T01:05:12;100866.00;;;25.36;51.76
53659;BME280;41524;35.624;139.698;2023-09-07T01:10:14;100881.00;;;27.75;47.00
53659;BME280;41524;35.624;139.698;2023-09-07T01:15:11;100881.00;;;27.09;49.42
53659;BME280;41524;35.624;139.698;2023-09-07T01:20:11;100885.00;;;27.90;47.85
53659;BME280;41524;35.624;139.698;2023-09-07T01:25:11;100880.00;;;29.87;44.58
53659;BME280;41524;35.624;139.698;2023-09-07T01:30:11;100869.00;;;29.91;43.44
53659;BME280;41524;35.624;139.698;2023-09-07T01:35:13;100859.00;;;27.00;48.43
53659;BME280;41524;35.624;139.698;2023-09-07T01:40:12;100844.00;;;28.11;46.46
53659;BME280;41524;35.624;139.698;2023-09-07T01:45:11;100843.00;;;28.26;45.98
53659;BME280;41524;35.624;139.698;2023-09-07T01:50:11;100834.00;;;26.18;48.75
53659;BME280;41524;35.624;139.698;2023-09-07T01:55:11;100819.00;;;27.51;46.71
53659;BME280;41524;35.624;139.698;2023-09-07T02:00:12;100823.00;;;28.01;45.80
53659;BME280;41524;35.624;139.698;2023-09-07T02:05:12;100810.00;;;29.66;43.71
53659;BME280;41524;35.624;139.698;2023-09-07T02:10:12;100802.00;;;30.41;42.28
53659;BME280;41524;35.624;139.698;2023-09-07T02:15:11;100811.00;;;27.06;47.22
53659;BME280;41524;35.624;139.698;2023-09-07T02:20:12;100812.00;;;29.38;43.47
53659;BME280;41524;35.624;139.698;2023-09-07T02:25:11;100826.00;;;28.21;44.85
53659;BME280;41524;35.624;139.698;2023-09-07T02:30:11;100835.00;;;29.83;41.83
53659;BME280;41524;35.624;139.698;2023-09-07T02:35:11;100829.00;;;27.95;45.09
53659;BME280;41524;35.624;139.698;2023-09-07T02:40:11;100828.00;;;28.96;44.26
53659;BME280;41524;35.624;139.698;2023-09-07T02:45:14;100846.00;;;27.11;47.47
53659;BME280;41524;35.624;139.698;2023-09-07T02:50:12;100861.00;;;26.58;48.12
53659;BME280;41524;35.624;139.698;2023-09-07T02:55:11;100876.00;;;27.99;46.25
53659;BME280;41524;35.624;139.698;2023-09-07T03:00:12;100866.00;;;29.66;43.19
53659;BME280;41524;35.624;139.698;2023-09-07T03:05:11;100869.00;;;27.58;46.24
53659;BME280;41524;35.624;139.698;2023-09-07T03:10:11;100879.00;;;28.53;44.35
53659;BME280;41524;35.624;139.698;2023-09-07T03:15:12;100870.00;;;27.62;46.12
53659;BME280;41524;35.624;139.698;2023-09-07T03:20:11;100846.00;;;26.44;48.28
53659;BME280;41524;35.624;139.698;2023-09-07T03:25:11;100825.00;;;27.32;47.64
53659;BME280;41524;35.624;139.698;2023-09-07T03:30:11;100822.00;;;26.18;50.04
53659;BME280;41524;35.624;139.698;2023-09-07T03:35:12;100822.00;;;28.17;46.44
53659;BME280;41524;35.624;139.698;2023-09-07T03:40:11;100815.00;;;27.32;47.47
53659;BME280;41524;35.624;139.698;2023-09-07T03:45:12;100813.00;;;27.50;47.28
53659;BME280;41524;35.624;139.698;2023-09-07T03:50:12;100815.00;;;27.49;47.48
53659;BME280;41524;35.624;139.698;2023-09-07T03:55:11;100834.00;;;26.95;48.09
53659;BME280;41524;35.624;139.698;2023-09-07T04:00:21;100837.00;;;28.54;46.48
53659;BME280;41524;35.624;139.698;2023-09-07T04:05:12;100852.00;;;28.41;47.13
53659;BME280;41524;35.624;139.698;2023-09-07T04:10:11;100855.00;;;28.18;46.07
53659;BME280;41524;35.624;139.698;2023-09-07T04:15:12;100865.00;;;26.64;48.01
53659;BME280;41524;35.624;139.698;2023-09-07T04:20:11;100834.00;;;28.91;44.28
53659;BME280;41524;35.624;139.698;2023-09-07T04:25:12;100851.00;;;27.18;47.51
53659;BME280;41524;35.624;139.698;2023-09-07T04:30:12;100849.00;;;27.51;46.93
53659;BME280;41524;35.624;139.698;2023-09-07T04:35:13;100848.00;;;25.97;48.97
53659;BME280;41524;35.624;139.698;2023-09-07T04:40:11;100847.00;;;27.34;47.28
53659;BME280;41524;35.624;139.698;2023-09-07T04:45:12;100860.00;;;26.94;47.16
53659;BME280;41524;35.624;139.698;2023-09-07T04:50:11;100862.00;;;25.72;50.06
53659;BME280;41524;35.624;139.698;2023-09-07T04:55:12;100848.00;;;28.32;46.39
53659;BME280;41524;35.624;139.698;2023-09-07T05:00:11;100851.00;;;28.83;44.74
53659;BME280;41524;35.624;139.698;2023-09-07T05:05:11;100827.00;;;26.95;47.41
53659;BME280;41524;35.624;139.698;2023-09-07T05:10:12;100829.00;;;27.38;47.25
53659;BME280;41524;35.624;139.698;2023-09-07T05:15:11;100816.00;;;26.49;48.13
53659;BME280;41524;35.624;139.698;2023-09-07T05:20:12;100804.00;;;26.38;47.49
53659;BME280;41524;35.624;139.698;2023-09-07T05:25:11;100810.00;;;27.20;46.10
53659;BME280;41524;35.624;139.698;2023-09-07T05:30:11;100806.00;;;27.31;46.71
53659;BME280;41524;35.624;139.698;2023-09-07T05:35:11;100799.00;;;26.60;48.36
53659;BME280;41524;35.624;139.698;2023-09-07T05:40:11;100814.00;;;27.84;46.60
53659;BME280;41524;35.624;139.698;2023-09-07T05:45:12;100820.00;;;26.82;48.52
53659;BME280;41524;35.624;139.698;2023-09-07T05:50:10;100829.00;;;27.24;48.23
53659;BME280;41524;35.624;139.698;2023-09-07T05:55:11;100854.00;;;28.34;46.75
53659;BME280;41524;35.624;139.698;2023-09-07T06:00:12;100884.00;;;27.48;48.24
53659;BME280;41524;35.624;139.698;2023-09-07T06:05:13;100891.00;;;28.08;47.57
53659;BME280;41524;35.624;139.698;2023-09-07T06:10:11;100901.00;;;27.66;47.72
53659;BME280;41524;35.624;139.698;2023-09-07T06:15:11;100897.00;;;26.29;50.52
53659;BME280;41524;35.624;139.698;2023-09-07T06:20:12;100899.00;;;27.50;48.84
53659;BME280;41524;35.624;139.698;2023-09-07T06:25:13;100889.00;;;26.45;50.96
53659;BME280;41524;35.624;139.698;2023-09-07T06:30:11;100884.00;;;26.95;50.52
53659;BME280;41524;35.624;139.698;2023-09-07T06:35:11;100876.00;;;25.97;53.10
53659;BME280;41524;35.624;139.698;2023-09-07T06:40:11;100867.00;;;26.14;52.50
53659;BME280;41524;35.624;139.698;2023-09-07T06:45:12;100860.00;;;26.28;53.01
53659;BME280;41524;35.624;139.698;2023-09-07T06:50:11;100856.00;;;26.43;52.62
53659;BME280;41524;35.624;139.698;2023-09-07T06:55:11;100847.00;;;25.69;53.91
53659;BME280;41524;35.624;139.698;2023-09-07T07:00:13;100870.00;;;26.35;53.17
53659;BME280;41524;35.624;139.698;2023-09-07T07:05:11;100870.00;;;26.46;53.68
53659;BME280;41524;35.624;139.698;2023-09-07T07:10:11;100890.00;;;26.92;52.59
53659;BME280;41524;35.624;139.698;2023-09-07T07:15:12;100913.00;;;26.18;52.50
53659;BME280;41524;35.624;139.698;2023-09-07T07:20:11;100939.00;;;26.71;51.12
53659;BME280;41524;35.624;139.698;2023-09-07T07:25:12;100949.00;;;26.06;52.36
53659;BME280;41524;35.624;139.698;2023-09-07T07:30:11;100953.00;;;25.49;53.51
53659;BME280;41524;35.624;139.698;2023-09-07T07:35:12;100951.00;;;26.12;51.70
53659;BME280;41524;35.624;139.698;2023-09-07T07:40:14;100957.00;;;26.13;51.33
53659;BME280;41524;35.624;139.698;2023-09-07T07:45:11;100957.00;;;25.66;52.71
53659;BME280;41524;35.624;139.698;2023-09-07T07:50:11;100966.00;;;25.84;51.35
53659;BME280;41524;35.624;139.698;2023-09-07T07:55:12;100969.00;;;27.06;48.94
53659;BME280;41524;35.624;139.698;2023-09-07T08:00:13;100976.00;;;25.85;50.86
53659;BME280;41524;35.624;139.698;2023-09-07T08:05:11;100990.00;;;24.95;52.03
53659;BME280;41524;35.624;139.698;2023-09-07T08:10:11;101003.00;;;26.16;50.48
53659;BME280;41524;35.624;139.698;2023-09-07T08:15:11;101010.00;;;26.39;50.14
53659;BME280;41524;35.624;139.698;2023-09-07T08:20:13;101004.00;;;26.56;50.47
53659;BME280;41524;35.624;139.698;2023-09-07T08:25:11;101001.00;;;25.82;51.67
53659;BME280;41524;35.624;139.698;2023-09-07T08:30:13;101001.00;;;25.94;51.43
53659;BME280;41524;35.624;139.698;2023-09-07T08:35:12;100992.00;;;25.46;51.92
53659;BME280;41524;35.624;139.698;2023-09-07T08:40:11;100974.00;;;26.21;50.71
53659;BME280;41524;35.624;139.698;2023-09-07T08:45:20;100956.00;;;26.04;52.41
53659;BME280;41524;35.624;139.698;2023-09-07T08:50:13;100950.00;;;26.30;53.62
53659;BME280;41524;35.624;139.698;2023-09-07T08:55:12;100950.00;;;25.61;56.24
53659;BME280;41524;35.624;139.698;2023-09-07T09:00:12;100943.00;;;25.57;56.81
53659;BME280;41524;35.624;139.698;2023-09-07T09:05:13;100943.00;;;25.55;56.60
53659;BME280;41524;35.624;139.698;2023-09-07T09:10:12;100935.00;;;25.19;58.66
53659;BME280;41524;35.624;139.698;2023-09-07T09:15:11;100942.00;;;25.47;57.54
53659;BME280;41524;35.624;139.698;2023-09-07T09:20:22;100953.00;;;25.35;57.83
53659;BME280;41524;35.624;139.698;2023-09-07T09:25:12;100965.00;;;26.63;55.82
53659;BME280;41524;35.624;139.698;2023-09-07T09:30:12;100974.00;;;25.70;58.37
53659;BME280;41524;35.624;139.698;2023-09-07T09:35:11;101006.00;;;25.98;57.25
53659;BME280;41524;35.624;139.698;2023-09-07T09:40:12;101032.00;;;24.74;60.16
53659;BME280;41524;35.624;139.698;2023-09-07T09:45:12;101034.00;;;25.56;58.92
53659;BME280;41524;35.624;139.698;2023-09-07T09:50:12;101038.00;;;26.26;58.27
53659;BME280;41524;35.624;139.698;2023-09-07T09:55:10;101034.00;;;25.82;58.64
53659;BME280;41524;35.624;139.698;2023-09-07T10:00:12;101044.00;;;26.49;58.52
53659;BME280;41524;35.624;139.698;2023-09-07T10:05:12;101044.00;;;26.13;59.16
53659;BME280;41524;35.624;139.698;2023-09-07T10:10:14;101032.00;;;25.33;60.26
53659;BME280;41524;35.624;139.698;2023-09-07T10:15:28;101037.00;;;24.69;61.67
53659;BME280;41524;35.624;139.698;2023-09-07T10:20:11;101045.00;;;25.07;60.76
53659;BME280;41524;35.624;139.698;2023-09-07T10:25:21;101060.00;;;26.55;57.51
53659;BME280;41524;35.624;139.698;2023-09-07T10:30:13;101077.00;;;27.21;56.33
53659;BME280;41524;35.624;139.698;2023-09-07T10:35:15;101093.00;;;25.34;59.65
53659;BME280;41524;35.624;139.698;2023-09-07T10:40:12;101111.00;;;26.04;58.62
53659;BME280;41524;35.624;139.698;2023-09-07T10:45:12;101122.00;;;26.06;58.43
53659;BME280;41524;35.624;139.698;2023-09-07T10:50:12;101145.00;;;26.86;57.60
53659;BME280;41524;35.624;139.698;2023-09-07T10:55:12;101164.00;;;27.85;55.52
53659;BME280;41524;35.624;139.698;2023-09-07T11:00:13;101166.00;;;26.08;59.28
53659;BME280;41524;35.624;139.698;2023-09-07T11:05:11;101181.00;;;25.22;62.15
53659;BME280;41524;35.624;139.698;2023-09-07T11:10:14;101183.00;;;26.08;60.05
53659;BME280;41524;35.624;139.698;2023-09-07T11:15:12;101182.00;;;26.28;59.96
53659;BME280;41524;35.624;139.698;2023-09-07T11:20:12;101180.00;;;25.83;61.32
53659;BME280;41524;35.624;139.698;2023-09-07T11:25:11;101175.00;;;25.47;62.39
53659;BME280;41524;35.624;139.698;2023-09-07T11:30:12;101165.00;;;24.02;66.20
53659;BME280;41524;35.624;139.698;2023-09-07T11:35:11;101152.00;;;24.92;64.47
53659;BME280;41524;35.624;139.698;2023-09-07T11:40:12;101138.00;;;26.02;61.98
53659;BME280;41524;35.624;139.698;2023-09-07T11:45:11;101118.00;;;25.17;64.09
53659;BME280;41524;35.624;139.698;2023-09-07T11:50:12;101104.00;;;25.31;63.42
53659;BME280;41524;35.624;139.698;2023-09-07T11:55:13;101099.00;;;23.99;67.09
53659;BME280;41524;35.624;139.698;2023-09-07T12:00:12;101093.00;;;24.52;66.70
53659;BME280;41524;35.624;139.698;2023-09-07T12:05:12;101077.00;;;25.32;64.62
53659;BME280;41524;35.624;139.698;2023-09-07T12:10:11;101078.00;;;25.80;63.74
53659;BME280;41524;35.624;139.698;2023-09-07T12:15:12;101094.00;;;24.15;66.50
53659;BME280;41524;35.624;139.698;2023-09-07T12:20:12;101108.00;;;25.09;64.63
53659;BME280;41524;35.624;139.698;2023-09-07T12:25:20;101130.00;;;24.47;67.09
53659;BME280;41524;35.624;139.698;2023-09-07T12:30:11;101148.00;;;25.16;66.45
53659;BME280;41524;35.624;139.698;2023-09-07T12:35:11;101160.00;;;23.39;69.72
53659;BME280;41524;35.624;139.698;2023-09-07T12:40:13;101176.00;;;25.65;63.80
53659;BME280;41524;35.624;139.698;2023-09-07T12:45:12;101192.00;;;25.56;63.68
53659;BME280;41524;35.624;139.698;2023-09-07T12:50:12;101204.00;;;25.23;64.27
53659;BME280;41524;35.624;139.698;2023-09-07T12:55:12;101214.00;;;25.25;64.11
53659;BME280;41524;35.624;139.698;2023-09-07T13:00:12;101212.00;;;25.18;64.92
53659;BME280;41524;35.624;139.698;2023-09-07T13:05:11;101210.00;;;25.48;65.02
53659;BME280;41524;35.624;139.698;2023-09-07T13:10:13;101199.00;;;26.42;64.02
53659;BME280;41524;35.624;139.698;2023-09-07T13:15:12;101209.00;;;24.19;68.27
53659;BME280;41524;35.624;139.698;2023-09-07T13:20:16;101207.00;;;23.98;68.90
53659;BME280;41524;35.624;139.698;2023-09-07T13:25:11;101207.00;;;24.58;68.20
53659;BME280;41524;35.624;139.698;2023-09-07T13:30:12;101198.00;;;24.55;68.37
53659;BME280;41524;35.624;139.698;2023-09-07T13:35:11;101183.00;;;24.70;69.21
53659;BME280;41524;35.624;139.698;2023-09-07T13:40:12;101170.00;;;24.49;69.91
53659;BME280;41524;35.624;139.698;2023-09-07T13:45:12;101168.00;;;22.56;74.29
53659;BME280;41524;35.624;139.698;2023-09-07T13:50:10;101174.00;;;25.10;69.11
53659;BME280;41524;35.624;139.698;2023-09-07T13:55:11;101175.00;;;24.72;69.22
53659;BME280;41524;35.624;139.698;2023-09-07T14:00:13;101181.00;;;23.60;71.55
53659;BME280;41524;35.624;139.698;2023-09-07T14:05:11;101170.00;;;23.42;72.88
53659;BME280;41524;35.624;139.698;2023-09-07T14:10:10;101153.00;;;23.69;72.11
53659;BME280;41524;35.624;139.698;2023-09-07T14:15:11;101139.00;;;25.72;66.50
53659;BME280;41524;35.624;139.698;2023-09-07T14:20:12;101123.00;;;23.95;69.71
53659;BME280;41524;35.624;139.698;2023-09-07T14:25:11;101099.00;;;23.67;71.16
53659;BME280;41524;35.624;139.698;2023-09-07T14:30:12;101079.00;;;24.40;69.81
53659;BME280;41524;35.624;139.698;2023-09-07T14:35:11;101073.00;;;24.27;69.18
53659;BME280;41524;35.624;139.698;2023-09-07T14:40:12;101077.00;;;24.19;68.84
53659;BME280;41524;35.624;139.698;2023-09-07T14:45:12;101092.00;;;22.81;72.70
53659;BME280;41524;35.624;139.698;2023-09-07T14:50:11;101109.00;;;22.59;73.22
53659;BME280;41524;35.624;139.698;2023-09-07T14:55:11;101116.00;;;24.31;69.08
53659;BME280;41524;35.624;139.698;2023-09-07T15:00:12;101101.00;;;24.45;69.06
53659;BME280;41524;35.624;139.698;2023-09-07T15:05:11;101085.00;;;24.03;69.74
53659;BME280;41524;35.624;139.698;2023-09-07T15:10:11;101059.00;;;24.64;68.29
53659;BME280;41524;35.624;139.698;2023-09-07T15:15:12;101030.00;;;25.61;66.02
53659;BME280;41524;35.624;139.698;2023-09-07T15:20:12;100995.00;;;24.99;66.99
53659;BME280;41524;35.624;139.698;2023-09-07T15:25:11;100965.00;;;25.48;66.41
53659;BME280;41524;35.624;139.698;2023-09-07T15:30:11;100963.00;;;24.96;67.30
53659;BME280;41524;35.624;139.698;2023-09-07T15:35:12;100985.00;;;25.80;65.80
53659;BME280;41524;35.624;139.698;2023-09-07T15:40:12;100995.00;;;24.97;67.22
53659;BME280;41524;35.624;139.698;2023-09-07T15:45:11;101009.00;;;26.10;64.92
53659;BME280;41524;35.624;139.698;2023-09-07T15:50:12;101007.00;;;24.91;67.26
53659;BME280;41524;35.624;139.698;2023-09-07T15:55:12;100997.00;;;25.11;66.79
53659;BME280;41524;35.624;139.698;2023-09-07T16:00:12;101019.00;;;25.42;66.59
53659;BME280;41524;35.624;139.698;2023-09-07T16:05:11;101042.00;;;25.53;67.19
53659;BME280;41524;35.624;139.698;2023-09-07T16:10:11;101056.00;;;25.10;68.48
53659;BME280;41524;35.624;139.698;2023-09-07T16:15:12;101053.00;;;24.56;69.66
53659;BME280;41524;35.624;139.698;2023-09-07T16:20:11;101067.00;;;24.60;69.29
53659;BME280;41524;35.624;139.698;2023-09-07T16:25:11;101103.00;;;23.22;73.34
53659;BME280;41524;35.624;139.698;2023-09-07T16:30:11;101109.00;;;23.06;73.48
53659;BME280;41524;35.624;139.698;2023-09-07T16:35:12;101093.00;;;24.45;70.50
53659;BME280;41524;35.624;139.698;2023-09-07T16:40:11;101082.00;;;24.15;69.77
53659;BME280;41524;35.624;139.698;2023-09-07T16:45:11;101057.00;;;23.39;70.53
53659;BME280;41524;35.624;139.698;2023-09-07T16:50:13;101035.00;;;24.24;69.10
53659;BME280;41524;35.624;139.698;2023-09-07T16:55:11;100991.00;;;24.39;64.21
53659;BME280;41524;35.624;139.698;2023-09-07T17:00:12;100973.00;;;24.17;65.89
53659;BME280;41524;35.624;139.698;2023-09-07T17:05:11;100971.00;;;24.32;67.08
53659;BME280;41524;35.624;139.698;2023-09-07T17:10:14;100977.00;;;24.68;67.13
53659;BME280;41524;35.624;139.698;2023-09-07T17:15:12;100991.00;;;24.21;68.37
53659;BME280;41524;35.624;139.698;2023-09-07T17:20:12;100995.00;;;23.93;68.86
53659;BME280;41524;35.624;139.698;2023-09-07T17:25:12;101012.00;;;24.96;66.64
53659;BME280;41524;35.624;139.698;2023-09-07T17:30:13;101025.00;;;24.11;68.51
53659;BME280;41524;35.624;139.698;2023-09-07T17:35:12;101050.00;;;24.02;69.36
53659;BME280;41524;35.624;139.698;2023-09-07T17:40:13;101060.00;;;23.84;69.30
53659;BME280;41524;35.624;139.698;2023-09-07T17:45:11;101051.00;;;24.27;68.53
53659;BME280;41524;35.624;139.698;2023-09-07T17:50:11;101047.00;;;24.29;68.14
53659;BME280;41524;35.624;139.698;2023-09-07T17:55:11;101050.00;;;24.72;67.31
53659;BME280;41524;35.624;139.698;2023-09-07T18:00:13;101077.00;;;24.25;68.12
53659;BME280;41524;35.624;139.698;2023-09-07T18:05:11;101091.00;;;23.84;69.03
53659;BME280;41524;35.624;139.698;2023-09-07T18:10:12;101097.00;;;24.52;67.88
53659;BME280;41524;35.624;139.698;2023-09-07T18:15:11;101088.00;;;24.35;68.48
53659;BME280;41524;35.624;139.698;2023-09-07T18:20:11;101117.00;;;22.33;73.20
53659;BME280;41524;35.624;139.698;2023-09-07T18:25:11;101120.00;;;24.74;68.00
53659;BME280;41524;35.624;139.698;2023-09-07T18:30:12;101094.00;;;24.03;69.07
53659;BME280;41524;35.624;139.698;2023-09-07T18:35:11;101068.00;;;23.96;68.96
53659;BME280;41524;35.624;139.698;2023-09-07T18:40:12;101058.00;;;23.69;69.29
53659;BME280;41524;35.624;139.698;2023-09-07T18:45:11;101044.00;;;24.25;67.55
53659;BME280;41524;35.624;139.698;2023-09-07T18:50:12;101053.00;;;24.79;66.56
53659;BME280;41524;35.624;139.698;2023-09-07T18:55:10;101060.00;;;25.01;65.51
53659;BME280;41524;35.624;139.698;2023-09-07T19:00:12;101066.00;;;22.84;70.51
53659;BME280;41524;35.624;139.698;2023-09-07T19:05:11;101066.00;;;24.06;67.69
53659;BME280;41524;35.624;139.698;2023-09-07T19:10:11;101060.00;;;24.00;67.16
53659;BME280;41524;35.624;139.698;2023-09-07T19:15:11;101044.00;;;23.70;67.87
53659;BME280;41524;35.624;139.698;2023-09-07T19:20:15;101038.00;;;23.26;68.05
53659;BME280;41524;35.624;139.698;2023-09-07T19:25:12;101022.00;;;23.65;67.64
53659;BME280;41524;35.624;139.698;2023-09-07T19:30:11;101015.00;;;24.00;67.12
53659;BME280;41524;35.624;139.698;2023-09-07T19:35:11;101048.00;;;23.61;66.83
53659;BME280;41524;35.624;139.698;2023-09-07T19:40:13;101063.00;;;23.22;67.85
53659;BME280;41524;35.624;139.698;2023-09-07T19:45:11;101042.00;;;23.91;66.38
53659;BME280;41524;35.624;139.698;2023-09-07T19:50:11;101023.00;;;23.68;67.52
53659;BME280;41524;35.624;139.698;2023-09-07T19:55:11;101035.00;;;23.26;67.97
53659;BME280;41524;35.624;139.698;2023-09-07T20:00:12;101019.00;;;22.48;69.69
53659;BME280;41524;35.624;139.698;2023-09-07T20:05:16;101012.00;;;21.79;69.17
53659;BME280;41524;35.624;139.698;2023-09-07T20:10:11;101038.00;;;21.58;71.65
53659;BME280;41524;35.624;139.698;2023-09-07T20:15:11;101056.00;;;20.66;75.07
53659;BME280;41524;35.624;139.698;2023-09-07T20:20:11;101053.00;;;21.87;74.62
53659;BME280;41524;35.624;139.698;2023-09-07T20:25:11;101066.00;;;19.73;79.26
53659;BME280;41524;35.624;139.698;2023-09-07T20:30:11;101058.00;;;22.37;72.30
53659;BME280;41524;35.624;139.698;2023-09-07T20:35:11;101055.00;;;21.64;73.48
53659;BME280;41524;35.624;139.698;2023-09-07T20:40:11;101063.00;;;20.68;77.23
53659;BME280;41524;35.624;139.698;2023-09-07T20:45:11;101073.00;;;22.06;73.09
53659;BME280;41524;35.624;139.698;2023-09-07T20:50:17;101074.00;;;19.85;78.59
53659;BME280;41524;35.624;139.698;2023-09-07T20:55:11;101078.00;;;21.05;76.35
53659;BME280;41524;35.624;139.698;2023-09-07T21:00:12;101075.00;;;21.45;72.65
53659;BME280;41524;35.624;139.698;2023-09-07T21:05:12;101091.00;;;19.04;78.66
53659;BME280;41524;35.624;139.698;2023-09-07T21:10:11;101074.00;;;20.97;74.77
53659;BME280;41524;35.624;139.698;2023-09-07T21:15:11;101062.00;;;20.38;76.75
53659;BME280;41524;35.624;139.698;2023-09-07T21:20:11;101072.00;;;20.69;75.51
53659;BME280;41524;35.624;139.698;2023-09-07T21:25:12;101096.00;;;18.08;83.40
53659;BME280;41524;35.624;139.698;2023-09-07T21:30:13;101090.00;;;18.77;82.35
53659;BME280;41524;35.624;139.698;2023-09-07T21:35:12;101089.00;;;20.90;76.49
53659;BME280;41524;35.624;139.698;2023-09-07T21:40:12;101077.00;;;18.24;83.99
53659;BME280;41524;35.624;139.698;2023-09-07T21:45:10;101080.00;;;21.08;77.12
53659;BME280;41524;35.624;139.698;2023-09-07T21:50:11;101055.00;;;19.06;81.20
53659;BME280;41524;35.624;139.698;2023-09-07T21:55:11;101055.00;;;18.97;80.64
53659;BME280;41524;35.624;139.698;2023-09-07T22:00:12;101090.00;;;18.32;79.24
53659;BME280;41524;35.624;139.698;2023-09-07T22:05:11;101104.00;;;19.22;78.23
53659;BME280;41524;35.624;139.698;2023-09-07T22:10:11;101107.00;;;20.76;73.74
53659;BME280;41524;35.624;139.698;2023-09-07T22:15:10;101099.00;;;20.26;73.24
53659;BME280;41524;35.624;139.698;2023-09-07T22:20:11;101119.00;;;18.46;77.35
53659;BME280;41524;35.624;139.698;2023-09-07T22:25:11;101121.00;;;20.62;71.02
53659;BME280;41524;35.624;139.698;2023-09-07T22:30:12;101101.00;;;18.10;77.00
53659;BME280;41524;35.624;139.698;2023-09-07T22:35:12;101114.00;;;18.22;78.31
53659;BME280;41524;35.624;139.698;2023-09-07T22:40:11;101097.00;;;20.27;72.49
53659;BME280;41524;35.624;139.698;2023-09-07T22:45:11;101085.00;;;20.54;71.11
53659;BME280;41524;35.624;139.698;2023-09-07T22:50:11;101104.00;;;20.02;72.19
53659;BME280;41524;35.624;139.698;2023-09-07T22:55:11;101104.00;;;20.24;72.33
53659;BME280;41524;35.624;139.698;2023-09-07T23:00:12;101111.00;;;19.73;74.13
53659;BME280;41524;35.624;139.698;2023-09-07T23:05:12;101102.00;;;18.60;77.12
53659;BME280;41524;35.624;139.698;2023-09-07T23:10:12;101111.00;;;17.45;81.41
53659;BME280;41524;35.624;139.698;2023-09-07T23:15:11;101108.00;;;19.68;75.96
53659;BME280;41524;35.624;139.698;2023-09-07T23:20:11;101090.00;;;20.07;74.24
53659;BME280;41524;35.624;139.698;2023-09-07T23:25:16;101126.00;;;19.83;74.48
53659;BME280;41524;35.624;139.698;2023-09-07T23:30:12;101111.00;;;19.78;74.51
53659;BME280;41524;35.624;139.698;2023-09-07T23:35:11;101131.00;;;20.04;74.43
53659;BME280;41524;35.624;139.698;2023-09-07T23:40:12;101148.00;;;18.13;79.23
53659;BME280;41524;35.624;139.698;2023-09-07T23:45:11;101196.00;;;17.64;81.84
53659;BME280;41524;35.624;139.698;2023-09-07T23:50:11;101181.00;;;18.91;78.14
53659;BME280;41524;35.624;139.698;2023-09-07T23:55:13;101162.00;;;20.00;74.80
